createdAt,value
2023-03-01T00:01:41.367Z,20.67
2023-03-01T00:04:08.768Z,20.95
2023-03-01T00:06:36.950Z,23.20
2023-03-01T00:09:04.620Z,23.67
2023-03-01T00:11:33.864Z,22.15
2023-03-01T00:14:02.700Z,21.95
2023-03-01T00:16:34.652Z,23.15
2023-03-01T00:19:02.755Z,24.42
2023-03-01T00:21:30.198Z,22.08
2023-03-01T00:23:58.556Z,20.95
2023-03-01T00:26:26.798Z,22.55
2023-03-01T00:28:56.405Z,21.80
2023-03-01T00:31:31.105Z,22.10
2023-03-01T00:34:00.912Z,20.42
2023-03-01T00:36:31.528Z,23.83
2023-03-01T00:38:59.077Z,23.48
2023-03-01T00:41:27.694Z,23.35
2023-03-01T00:43:56.076Z,24.73
2023-03-01T00:46:25.947Z,26.92
2023-03-01T00:48:53.649Z,24.88
2023-03-01T00:51:24.312Z,25.00
2023-03-01T00:53:53.301Z,24.83
2023-03-01T00:56:20.893Z,29.92
2023-03-01T00:58:48.518Z,27.30
2023-03-01T01:01:21.669Z,27.75
2023-03-01T01:04:08.542Z,27.40
2023-03-01T01:06:43.440Z,27.92
2023-03-01T01:09:20.126Z,27.45
2023-03-01T01:11:50.029Z,26.40
2023-03-01T01:14:18.980Z,26.80
2023-03-01T01:16:46.585Z,24.45
2023-03-01T01:19:14.535Z,26.20
2023-03-01T01:21:44.235Z,29.40
2023-03-01T01:24:12.429Z,28.83
2023-03-01T01:26:39.736Z,27.70
2023-03-01T01:29:07.418Z,27.02
2023-03-01T01:31:36.428Z,27.17
2023-03-01T01:34:06.134Z,27.73
2023-03-01T01:36:34.490Z,30.25
2023-03-01T01:39:02.272Z,23.15
2023-03-01T01:41:30.251Z,26.48
2023-03-01T01:44:24.403Z,26.08
2023-03-01T01:47:07.572Z,24.05
2023-03-01T01:49:56.523Z,25.48
2023-03-01T01:52:37.063Z,24.67
2023-03-01T01:55:10.928Z,26.30
2023-03-01T01:57:45.788Z,25.90
2023-03-01T02:00:17.696Z,23.40
2023-03-01T02:02:47.909Z,24.42
2023-03-01T02:05:35.634Z,23.85
2023-03-01T02:08:03.668Z,24.73
2023-03-01T02:10:34.860Z,23.58
2023-03-01T02:13:03.677Z,27.05
2023-03-01T02:15:40.075Z,23.27
2023-03-01T02:18:09.352Z,25.60
2023-03-01T02:20:51.925Z,23.40
2023-03-01T02:23:19.615Z,24.88
2023-03-01T02:25:58.475Z,25.00
2023-03-01T02:28:38.139Z,25.90
2023-03-01T02:31:29.325Z,23.48
2023-03-01T02:33:58.155Z,30.35
2023-03-01T02:36:33.546Z,26.45
2023-03-01T02:39:04.234Z,27.37
2023-03-01T02:41:36.669Z,28.52
2023-03-01T02:44:05.273Z,28.17
2023-03-01T02:46:32.819Z,28.42
2023-03-01T02:49:00.674Z,25.35
2023-03-01T02:51:33.774Z,23.98
2023-03-01T02:54:37.482Z,24.15
2023-03-01T02:57:05.311Z,26.20
2023-03-01T02:59:40.350Z,25.80
2023-03-01T03:02:21.229Z,31.07
2023-03-01T03:04:48.598Z,23.00
2023-03-01T03:07:16.066Z,24.65
2023-03-01T03:09:43.321Z,25.10
2023-03-01T03:12:10.997Z,25.42
2023-03-01T03:14:38.542Z,24.05
2023-03-01T03:17:07.565Z,21.77
2023-03-01T03:19:34.774Z,21.77
2023-03-01T03:22:02.750Z,22.75
2023-03-01T03:24:39.267Z,20.88
2023-03-01T03:27:07.781Z,22.05
2023-03-01T03:29:35.287Z,24.23
2023-03-01T03:32:02.710Z,25.10
2023-03-01T03:34:30.922Z,26.70
2023-03-01T03:37:00.335Z,28.67
2023-03-01T03:39:28.376Z,25.88
2023-03-01T03:41:55.732Z,26.35
2023-03-01T03:44:22.936Z,26.60
2023-03-01T03:46:50.152Z,22.73
2023-03-01T03:49:17.457Z,28.70
2023-03-01T03:51:47.332Z,26.07
2023-03-01T03:54:14.631Z,26.23
2023-03-01T03:56:41.917Z,26.70
2023-03-01T03:59:12.327Z,26.40
2023-03-01T04:01:39.683Z,29.17
2023-03-01T04:04:08.800Z,23.95
2023-03-01T04:06:36.149Z,25.67
2023-03-01T04:09:03.588Z,25.67
2023-03-01T04:11:31.097Z,26.60
2023-03-01T04:13:59.836Z,25.75
2023-03-01T04:16:27.279Z,25.63
2023-03-01T04:18:54.621Z,26.70
2023-03-01T04:21:22.748Z,25.80
2023-03-01T04:23:53.439Z,30.35
2023-03-01T04:26:21.392Z,29.40
2023-03-01T04:28:50.405Z,27.27
2023-03-01T04:31:22.118Z,26.43
2023-03-01T04:33:54.958Z,27.13
2023-03-01T04:36:25.458Z,32.23
2023-03-01T04:38:53.394Z,28.77
2023-03-01T04:41:22.201Z,26.73
2023-03-01T04:43:50.128Z,26.93
2023-03-01T04:46:20.445Z,29.13
2023-03-01T04:48:48.412Z,27.43
2023-03-01T04:51:16.779Z,27.10
2023-03-01T04:53:45.008Z,26.20
2023-03-01T04:56:14.773Z,26.85
2023-03-01T04:58:42.857Z,29.27
2023-03-01T05:01:16.216Z,26.67
2023-03-01T05:03:45.348Z,23.63
2023-03-01T05:06:13.363Z,23.83
2023-03-01T05:08:42.390Z,28.83
2023-03-01T05:11:11.605Z,26.38
2023-03-01T05:13:40.413Z,26.20
2023-03-01T05:16:12.291Z,29.83
2023-03-01T05:18:40.754Z,30.55
2023-03-01T05:21:18.474Z,25.40
2023-03-01T05:23:47.778Z,26.80
2023-03-01T05:26:39.708Z,27.80
2023-03-01T05:29:03.941Z,30.70
2023-03-01T05:31:31.901Z,27.63
2023-03-01T05:33:59.318Z,24.40
2023-03-01T05:36:26.621Z,30.30
2023-03-01T05:38:53.919Z,26.73
2023-03-01T05:41:21.100Z,25.50
2023-03-01T05:43:48.326Z,27.93
2023-03-01T05:46:16.303Z,27.08
2023-03-01T05:48:43.723Z,29.33
2023-03-01T05:51:11.194Z,27.67
2023-03-01T05:53:38.474Z,27.42
2023-03-01T05:56:06.074Z,26.73
2023-03-01T05:58:33.326Z,29.20
2023-03-01T06:01:00.601Z,25.85
2023-03-01T06:03:27.862Z,29.77
2023-03-01T06:05:59.079Z,24.45
2023-03-01T06:08:28.122Z,30.85
2023-03-01T06:10:55.748Z,28.67
2023-03-01T06:13:24.464Z,31.52
2023-03-01T06:15:52.957Z,35.53
2023-03-01T06:18:20.475Z,29.45
2023-03-01T06:20:55.032Z,28.40
2023-03-01T06:23:26.180Z,28.23
2023-03-01T06:25:53.971Z,31.80
2023-03-01T06:28:21.595Z,32.40
2023-03-01T06:30:50.701Z,31.27
2023-03-01T06:33:20.169Z,27.95
2023-03-01T06:35:48.068Z,35.67
2023-03-01T06:38:19.895Z,31.55
2023-03-01T06:40:54.935Z,30.17
2023-03-01T06:43:22.475Z,29.02
2023-03-01T06:45:49.818Z,29.63
2023-03-01T06:48:17.062Z,27.55
2023-03-01T06:50:44.373Z,34.15
2023-03-01T06:53:11.916Z,30.83
2023-03-01T06:55:39.281Z,32.28
2023-03-01T06:58:06.545Z,29.57
2023-03-01T07:00:34.042Z,37.15
2023-03-01T07:03:03.397Z,30.98
2023-03-01T07:05:34.577Z,30.73
2023-03-01T07:08:02.050Z,29.88
2023-03-01T07:10:29.967Z,33.17
2023-03-01T07:12:58.854Z,32.38
2023-03-01T07:15:27.414Z,30.85
2023-03-01T07:17:54.929Z,30.58
2023-03-01T07:20:26.284Z,32.13
2023-03-01T07:22:54.997Z,32.95
2023-03-01T07:25:22.651Z,26.45
2023-03-01T07:27:51.629Z,32.95
2023-03-01T07:30:19.405Z,35.38
2023-03-01T07:32:46.866Z,30.90
2023-03-01T07:35:15.783Z,32.95
2023-03-01T07:37:43.300Z,32.63
2023-03-01T07:40:11.393Z,30.00
2023-03-01T07:42:38.929Z,28.95
2023-03-01T07:45:07.497Z,30.60
2023-03-01T07:47:34.736Z,30.83
2023-03-01T07:50:04.976Z,30.23
2023-03-01T07:52:32.447Z,33.47
2023-03-01T07:54:59.712Z,31.77
2023-03-01T07:57:27.369Z,29.45
2023-03-01T07:59:54.574Z,29.10
2023-03-01T08:02:21.971Z,29.50
2023-03-01T08:04:49.209Z,29.10
2023-03-01T08:07:16.578Z,29.70
2023-03-01T08:09:43.952Z,31.05
2023-03-01T08:12:11.305Z,28.67
2023-03-01T08:14:38.634Z,30.38
2023-03-01T08:17:05.901Z,30.75
2023-03-01T08:19:34.168Z,28.10
2023-03-01T08:22:03.479Z,27.45
2023-03-01T08:24:30.860Z,28.70
2023-03-01T08:26:58.229Z,30.23
2023-03-01T08:29:28.079Z,27.23
2023-03-01T08:31:55.384Z,30.10
2023-03-01T08:34:22.721Z,27.30
2023-03-01T08:36:51.114Z,28.30
2023-03-01T08:39:20.275Z,25.80
2023-03-01T08:41:48.365Z,31.08
2023-03-01T08:44:20.539Z,24.70
2023-03-01T08:46:48.094Z,27.73
2023-03-01T08:49:17.719Z,25.50
2023-03-01T08:51:46.348Z,26.48
2023-03-01T08:54:19.606Z,29.17
2023-03-01T08:56:47.709Z,28.20
2023-03-01T08:59:16.744Z,25.90
2023-03-01T09:01:44.723Z,23.90
2023-03-01T09:04:13.394Z,20.83
2023-03-01T09:06:40.762Z,23.25
2023-03-01T09:09:15.932Z,25.48
2023-03-01T09:11:44.635Z,22.45
2023-03-01T09:14:13.312Z,22.17
2023-03-01T09:16:40.967Z,21.25
2023-03-01T09:19:08.279Z,21.40
2023-03-01T09:21:40.731Z,21.70
2023-03-01T09:24:14.443Z,21.75
2023-03-01T09:26:41.925Z,21.08
2023-03-01T09:29:10.630Z,25.65
2023-03-01T09:31:38.340Z,21.45
2023-03-01T09:34:06.141Z,23.33
2023-03-01T09:36:34.296Z,25.15
2023-03-01T09:39:02.395Z,22.45
2023-03-01T09:41:50.558Z,28.67
2023-03-01T09:44:39.364Z,32.90
2023-03-01T09:47:11.077Z,28.80
2023-03-01T09:49:49.567Z,29.23
2023-03-01T09:52:30.363Z,26.85
2023-03-01T09:55:00.348Z,28.88
2023-03-01T09:57:39.630Z,28.23
2023-03-01T10:00:17.790Z,29.65
2023-03-01T10:02:53.540Z,30.92
2023-03-01T10:05:36.013Z,27.42
2023-03-01T10:08:09.299Z,30.05
2023-03-01T10:10:40.523Z,27.90
2023-03-01T10:13:24.420Z,28.20
2023-03-01T10:15:57.090Z,30.15
2023-03-01T10:18:30.868Z,28.42
2023-03-01T10:21:03.408Z,30.58
2023-03-01T10:23:33.490Z,29.13
2023-03-01T10:26:19.499Z,32.70
2023-03-01T10:29:03.604Z,29.63
2023-03-01T10:31:52.475Z,31.05
2023-03-01T10:34:30.201Z,30.80
2023-03-01T10:37:14.993Z,30.83
2023-03-01T10:39:59.388Z,29.65
2023-03-01T10:42:29.755Z,32.53
2023-03-01T10:44:57.691Z,28.95
2023-03-01T10:47:27.858Z,31.98
2023-03-01T10:50:09.090Z,29.25
2023-03-01T10:52:38.782Z,30.13
2023-03-01T10:55:30.421Z,31.27
2023-03-01T10:58:08.437Z,30.20
2023-03-01T11:00:57.101Z,32.60
2023-03-01T11:03:28.490Z,33.03
2023-03-01T11:06:06.760Z,31.75
2023-03-01T11:08:40.576Z,32.67
2023-03-01T11:11:10.559Z,31.80
2023-03-01T11:13:40.161Z,31.80
2023-03-01T11:16:11.351Z,35.72
2023-03-01T11:18:47.791Z,30.52
2023-03-01T11:21:17.034Z,36.88
2023-03-01T11:23:47.584Z,31.95
2023-03-01T11:26:18.352Z,33.00
2023-03-01T11:28:52.414Z,30.52
2023-03-01T11:31:20.496Z,29.08
2023-03-01T11:34:20.434Z,30.88
2023-03-01T11:36:56.005Z,28.50
2023-03-01T11:39:28.702Z,27.92
2023-03-01T11:42:21.987Z,29.13
2023-03-01T11:44:55.322Z,30.85
2023-03-01T11:47:25.721Z,27.48
2023-03-01T11:50:29.638Z,33.28
2023-03-01T11:53:02.392Z,28.75
2023-03-01T11:55:47.782Z,26.33
2023-03-01T11:58:27.021Z,25.48
2023-03-01T12:01:24.262Z,26.77
2023-03-01T12:03:57.792Z,26.65
2023-03-01T12:07:02.547Z,28.20
2023-03-01T12:09:33.015Z,26.10
2023-03-01T12:12:38.702Z,26.83
2023-03-01T12:15:41.719Z,29.13
2023-03-01T12:18:17.926Z,17.80
2023-03-01T12:21:24.721Z,22.38
2023-03-01T12:24:26.514Z,22.43
2023-03-01T12:27:20.003Z,21.20
2023-03-01T12:29:58.193Z,19.30
2023-03-01T12:32:49.912Z,17.35
2023-03-01T12:35:39.100Z,13.30
2023-03-01T12:38:12.295Z,13.75
2023-03-01T12:41:04.408Z,12.43
2023-03-01T12:43:56.391Z,14.07
2023-03-01T12:46:42.088Z,13.52
2023-03-01T12:49:15.071Z,13.55
2023-03-01T12:51:52.781Z,14.32
2023-03-01T12:54:37.091Z,9.98
2023-03-01T12:57:26.562Z,10.88
2023-03-01T13:00:19.910Z,21.38
2023-03-01T13:03:11.741Z,11.82
2023-03-01T13:06:08.881Z,16.52
2023-03-01T13:08:49.732Z,12.60
2023-03-01T13:11:22.934Z,13.93
2023-03-01T13:13:52.389Z,14.02
2023-03-01T13:16:37.877Z,11.45
2023-03-01T13:19:20.094Z,11.88
2023-03-01T13:21:49.465Z,17.83
2023-03-01T13:24:29.992Z,14.13
2023-03-01T13:27:09.206Z,13.43
2023-03-01T13:30:26.008Z,12.10
2023-03-01T13:32:53.565Z,14.32
2023-03-01T13:35:21.040Z,12.02
2023-03-01T13:37:48.647Z,13.45
2023-03-01T13:40:23.519Z,14.52
2023-03-01T13:43:04.733Z,16.58
2023-03-01T13:45:44.102Z,16.35
2023-03-01T13:48:19.638Z,14.90
2023-03-01T13:50:53.831Z,10.95
2023-03-01T13:53:25.453Z,15.68
2023-03-01T13:55:59.937Z,16.70
2023-03-01T13:58:44.477Z,8.90
2023-03-01T14:01:25.954Z,15.45
2023-03-01T14:03:54.176Z,11.48
2023-03-01T14:06:26.584Z,13.25
2023-03-01T14:09:18.820Z,10.00
2023-03-01T14:12:12.100Z,9.45
2023-03-01T14:15:00.726Z,8.90
2023-03-01T14:17:39.853Z,9.88
2023-03-01T14:20:28.612Z,10.70
2023-03-01T14:22:59.203Z,11.38
2023-03-01T14:25:35.237Z,14.60
2023-03-01T14:28:22.805Z,14.15
2023-03-01T14:30:52.567Z,10.57
2023-03-01T14:33:37.329Z,15.02
2023-03-01T14:36:10.581Z,12.50
2023-03-01T14:38:43.631Z,13.20
2023-03-01T14:41:22.172Z,11.95
2023-03-01T14:43:53.709Z,13.98
2023-03-01T14:46:34.607Z,9.55
2023-03-01T14:49:21.352Z,13.70
2023-03-01T14:52:35.700Z,11.43
2023-03-01T14:55:17.527Z,11.60
2023-03-01T14:57:47.692Z,16.08
2023-03-01T15:00:29.864Z,14.18
2023-03-01T15:03:01.492Z,16.50
2023-03-01T15:05:33.803Z,14.98
2023-03-01T15:08:03.170Z,18.90
2023-03-01T15:10:36.429Z,16.30
2023-03-01T15:13:22.299Z,12.98
2023-03-01T15:15:52.215Z,13.90
2023-03-01T15:18:26.533Z,13.38
2023-03-01T15:20:54.379Z,15.57
2023-03-01T15:23:28.249Z,10.27
2023-03-01T15:25:59.742Z,12.38
2023-03-01T15:28:32.042Z,11.20
2023-03-01T15:31:20.073Z,14.57
2023-03-01T15:33:48.241Z,10.15
2023-03-01T15:36:37.492Z,11.70
2023-03-01T15:39:07.165Z,13.52
2023-03-01T15:41:47.508Z,12.00
2023-03-01T15:44:30.010Z,11.52
2023-03-01T15:47:06.400Z,13.32
2023-03-01T15:49:54.260Z,15.93
2023-03-01T15:52:40.414Z,17.02
2023-03-01T15:55:29.646Z,17.15
2023-03-01T15:58:21.805Z,15.48
2023-03-01T16:01:00.676Z,18.70
2023-03-01T16:03:29.308Z,16.00
2023-03-01T16:05:56.814Z,19.60
2023-03-01T16:08:24.426Z,11.95
2023-03-01T16:10:52.441Z,12.25
2023-03-01T16:13:20.343Z,14.30
2023-03-01T16:15:47.919Z,18.25
2023-03-01T16:18:15.409Z,15.68
2023-03-01T16:20:42.648Z,16.35
2023-03-01T16:23:12.518Z,17.30
2023-03-01T16:25:39.929Z,14.90
2023-03-01T16:28:11.906Z,13.50
2023-03-01T16:30:40.915Z,14.95
2023-03-01T16:33:24.291Z,15.98
2023-03-01T16:35:55.180Z,16.20
2023-03-01T16:38:22.595Z,14.55
2023-03-01T16:40:52.134Z,14.57
2023-03-01T16:43:19.826Z,15.30
2023-03-01T16:45:47.667Z,15.60
2023-03-01T16:48:15.533Z,21.58
2023-03-01T16:50:42.843Z,18.42
2023-03-01T16:53:10.272Z,22.17
2023-03-01T16:55:38.792Z,18.70
2023-03-01T16:58:06.613Z,23.23
2023-03-01T17:00:33.928Z,56.80
2023-03-01T17:03:01.210Z,16.67
2023-03-01T17:05:28.666Z,17.60
2023-03-01T17:07:58.176Z,21.98
2023-03-01T17:10:25.537Z,19.25
2023-03-01T17:12:53.020Z,23.13
2023-03-01T17:15:20.391Z,22.08
2023-03-01T17:17:51.628Z,35.38
2023-03-01T17:20:19.325Z,34.35
2023-03-01T17:22:46.651Z,29.63
2023-03-01T17:25:14.469Z,29.33
2023-03-01T17:27:41.828Z,22.73
2023-03-01T17:30:12.697Z,23.48
2023-03-01T17:32:40.870Z,17.40
2023-03-01T17:35:08.800Z,30.98
2023-03-01T17:37:37.108Z,15.68
2023-03-01T17:40:05.364Z,32.20
2023-03-01T17:42:33.806Z,19.02
2023-03-01T17:45:04.756Z,16.33
2023-03-01T17:47:32.352Z,12.45
2023-03-01T17:50:00.599Z,14.45
2023-03-01T17:52:31.308Z,15.68
2023-03-01T17:54:58.667Z,14.65
2023-03-01T17:57:26.380Z,13.70
2023-03-01T17:59:53.626Z,15.48
2023-03-01T18:02:23.935Z,16.83
2023-03-01T18:04:53.654Z,13.38
2023-03-01T18:07:21.410Z,13.93
2023-03-01T18:09:48.645Z,14.60
2023-03-01T18:12:15.878Z,17.88
2023-03-01T18:14:43.149Z,13.48
2023-03-01T18:17:12.314Z,12.68
2023-03-01T18:19:43.535Z,10.60
2023-03-01T18:22:10.856Z,14.27
2023-03-01T18:24:38.422Z,11.32
2023-03-01T18:27:06.189Z,11.60
2023-03-01T18:29:33.998Z,11.27
2023-03-01T18:32:01.374Z,12.20
2023-03-01T18:34:28.883Z,13.35
2023-03-01T18:37:08.658Z,11.70
2023-03-01T18:39:37.312Z,11.85
2023-03-01T18:42:05.049Z,10.10
2023-03-01T18:44:32.377Z,17.90
2023-03-01T18:46:59.628Z,14.75
2023-03-01T18:49:27.204Z,32.70
2023-03-01T18:51:54.478Z,13.30
2023-03-01T18:54:21.929Z,11.52
2023-03-01T18:56:49.214Z,15.57
2023-03-01T18:59:16.569Z,15.50
2023-03-01T19:01:43.924Z,16.52
2023-03-01T19:04:11.964Z,12.45
2023-03-01T19:06:39.365Z,11.45
2023-03-01T19:09:07.820Z,12.63
2023-03-01T19:11:35.948Z,13.65
2023-03-01T19:14:04.178Z,10.50
2023-03-01T19:16:33.408Z,11.15
2023-03-01T19:19:02.967Z,10.05
2023-03-01T19:21:32.535Z,16.38
2023-03-01T19:24:02.376Z,10.48
2023-03-01T19:26:31.360Z,11.30
2023-03-01T19:28:59.021Z,10.50
2023-03-01T19:31:29.591Z,11.07
2023-03-01T19:34:12.699Z,12.43
2023-03-01T19:36:42.462Z,10.52
2023-03-01T19:39:11.396Z,11.35
2023-03-01T19:41:38.876Z,11.65
2023-03-01T19:44:08.723Z,12.70
2023-03-01T19:46:36.550Z,15.55
2023-03-01T19:49:04.749Z,9.63
2023-03-01T19:51:38.815Z,7.63
2023-03-01T19:54:06.675Z,6.68
2023-03-01T19:56:34.696Z,6.80
2023-03-01T19:59:04.412Z,6.25
2023-03-01T20:01:34.511Z,8.13
2023-03-01T20:04:02.970Z,6.05
2023-03-01T20:06:31.243Z,6.60
2023-03-01T20:09:00.731Z,7.10
2023-03-01T20:11:29.854Z,5.75
2023-03-01T20:13:57.166Z,5.63
2023-03-01T20:16:26.792Z,6.78
2023-03-01T20:18:54.343Z,4.82
2023-03-01T20:21:24.295Z,4.57
2023-03-01T20:23:52.136Z,6.07
2023-03-01T20:26:20.598Z,4.97
2023-03-01T20:28:49.995Z,4.53
2023-03-01T20:31:19.884Z,3.47
2023-03-01T20:33:47.661Z,4.10
2023-03-01T20:36:15.385Z,4.70
2023-03-01T20:38:42.722Z,4.95
2023-03-01T20:41:12.616Z,4.10
2023-03-01T20:43:42.208Z,4.30
2023-03-01T20:46:15.020Z,5.22
2023-03-01T20:48:43.159Z,3.13
2023-03-01T20:51:12.127Z,3.63
2023-03-01T20:53:39.855Z,3.50
2023-03-01T20:56:10.258Z,4.45
2023-03-01T20:58:38.053Z,5.80
2023-03-01T21:01:06.338Z,4.72
2023-03-01T21:03:34.238Z,5.00
2023-03-01T21:06:02.876Z,4.88
2023-03-01T21:08:30.853Z,9.52
2023-03-01T21:10:59.246Z,10.05
2023-03-01T21:13:28.205Z,6.65
2023-03-01T21:16:04.647Z,5.13
2023-03-01T21:18:40.425Z,4.65
2023-03-01T21:21:11.033Z,6.38
2023-03-01T21:23:41.104Z,5.25
2023-03-01T21:26:19.308Z,4.55
2023-03-01T21:28:50.449Z,3.45
2023-03-01T21:31:23.514Z,5.43
2023-03-01T21:34:00.964Z,4.55
2023-03-01T21:36:30.544Z,3.45
2023-03-01T21:38:59.743Z,3.33
2023-03-01T21:41:30.718Z,3.38
2023-03-01T21:44:03.096Z,3.25
2023-03-01T21:46:34.748Z,3.78
2023-03-01T21:49:04.831Z,3.40
2023-03-01T21:51:32.925Z,3.00
2023-03-01T21:54:03.562Z,3.58
2023-03-01T21:56:34.542Z,4.30
2023-03-01T21:59:02.331Z,2.85
2023-03-01T22:01:29.645Z,4.10
2023-03-01T22:03:58.622Z,3.55
2023-03-01T22:06:33.702Z,3.15
2023-03-01T22:09:07.549Z,2.87
2023-03-01T22:11:40.394Z,4.45
2023-03-01T22:14:08.810Z,3.22
2023-03-01T22:16:38.179Z,3.70
2023-03-01T22:19:07.038Z,4.00
2023-03-01T22:21:35.159Z,4.90
2023-03-01T22:24:03.966Z,4.38
2023-03-01T22:26:37.409Z,5.13
2023-03-01T22:29:08.260Z,3.45
2023-03-01T22:31:36.113Z,5.13
2023-03-01T22:34:04.417Z,4.63
2023-03-01T22:36:32.072Z,4.85
2023-03-01T22:39:00.395Z,3.50
2023-03-01T22:41:44.175Z,3.70
2023-03-01T22:44:17.012Z,2.72
2023-03-01T22:46:45.221Z,3.45
2023-03-01T22:49:15.512Z,2.78
2023-03-01T22:51:44.782Z,3.10
2023-03-01T22:54:12.147Z,3.17
2023-03-01T22:56:40.271Z,6.55
2023-03-01T22:59:09.768Z,4.63
2023-03-01T23:01:39.199Z,3.63
2023-03-01T23:04:07.620Z,3.88
2023-03-01T23:06:35.683Z,4.00
2023-03-01T23:09:06.828Z,3.55
2023-03-01T23:11:34.077Z,2.25
2023-03-01T23:14:01.353Z,2.75
2023-03-01T23:16:28.685Z,3.30
2023-03-01T23:18:59.020Z,2.42
2023-03-01T23:21:26.835Z,4.93
2023-03-01T23:23:55.689Z,3.42
2023-03-01T23:26:26.173Z,3.70
2023-03-01T23:28:54.430Z,4.07
2023-03-01T23:31:22.206Z,2.55
2023-03-01T23:33:49.607Z,3.00
2023-03-01T23:36:21.521Z,2.50
2023-03-01T23:38:51.665Z,2.00
2023-03-01T23:41:21.538Z,2.47
2023-03-01T23:43:50.973Z,1.65
2023-03-01T23:46:20.306Z,3.13
2023-03-01T23:48:48.099Z,3.42
2023-03-01T23:51:17.644Z,2.15
2023-03-01T23:53:54.577Z,2.22
2023-03-01T23:56:27.008Z,2.78
2023-03-01T23:59:19.025Z,2.65
